sensor_id;sensor_type;location;lat;lon;timestamp;P1;durP1;ratioP1;P2;durP2;ratioP2
1294;SDS011;640;48.310;11.728;2023-02-28T00:01:28;6.93;;;5.10;;
1294;SDS011;640;48.310;11.728;2023-02-28T00:03:58;7.03;;;5.60;;
1294;SDS011;640;48.310;11.728;2023-02-28T00:06:27;7.23;;;5.30;;
1294;SDS011;640;48.310;11.728;2023-02-28T00:08:55;5.47;;;4.55;;
1294;SDS011;640;48.310;11.728;2023-02-28T00:11:23;6.03;;;5.20;;
1294;SDS011;640;48.310;11.728;2023-02-28T00:13:52;5.78;;;4.05;;
1294;SDS011;640;48.310;11.728;2023-02-28T00:16:21;7.55;;;4.88;;
1294;SDS011;640;48.310;11.728;2023-02-28T00:18:50;6.35;;;4.65;;
1294;SDS011;640;48.310;11.728;2023-02-28T00:21:20;5.60;;;4.47;;
1294;SDS011;640;48.310;11.728;2023-02-28T00:23:48;9.48;;;5.03;;
1294;SDS011;640;48.310;11.728;2023-02-28T00:26:16;6.25;;;4.25;;
1294;SDS011;640;48.310;11.728;2023-02-28T00:28:47;6.82;;;4.40;;
1294;SDS011;640;48.310;11.728;2023-02-28T00:31:16;5.70;;;4.43;;
1294;SDS011;640;48.310;11.728;2023-02-28T00:33:44;5.55;;;4.88;;
1294;SDS011;640;48.310;11.728;2023-02-28T00:36:12;5.28;;;4.32;;
1294;SDS011;640;48.310;11.728;2023-02-28T00:38:42;5.97;;;4.60;;
1294;SDS011;640;48.310;11.728;2023-02-28T00:41:10;7.23;;;5.67;;
1294;SDS011;640;48.310;11.728;2023-02-28T00:43:39;6.60;;;5.03;;
1294;SDS011;640;48.310;11.728;2023-02-28T00:46:07;7.38;;;4.70;;
1294;SDS011;640;48.310;11.728;2023-02-28T00:48:36;8.20;;;5.03;;
1294;SDS011;640;48.310;11.728;2023-02-28T00:51:04;5.93;;;4.47;;
1294;SDS011;640;48.310;11.728;2023-02-28T00:53:33;11.85;;;4.50;;
1294;SDS011;640;48.310;11.728;2023-02-28T00:56:02;5.82;;;4.28;;
1294;SDS011;640;48.310;11.728;2023-02-28T00:58:31;7.00;;;4.55;;
1294;SDS011;640;48.310;11.728;2023-02-28T01:00:59;6.95;;;4.75;;
1294;SDS011;640;48.310;11.728;2023-02-28T01:03:28;5.28;;;4.30;;
1294;SDS011;640;48.310;11.728;2023-02-28T01:05:56;5.13;;;3.13;;
1294;SDS011;640;48.310;11.728;2023-02-28T01:08:25;9.65;;;4.97;;
1294;SDS011;640;48.310;11.728;2023-02-28T01:10:53;5.68;;;4.45;;
1294;SDS011;640;48.310;11.728;2023-02-28T01:13:23;5.65;;;4.57;;
1294;SDS011;640;48.310;11.728;2023-02-28T01:15:52;7.18;;;5.60;;
1294;SDS011;640;48.310;11.728;2023-02-28T01:18:22;8.27;;;6.03;;
1294;SDS011;640;48.310;11.728;2023-02-28T01:20:51;5.88;;;3.90;;
1294;SDS011;640;48.310;11.728;2023-02-28T01:23:19;4.93;;;4.35;;
1294;SDS011;640;48.310;11.728;2023-02-28T01:25:48;6.82;;;5.38;;
1294;SDS011;640;48.310;11.728;2023-02-28T01:28:16;7.63;;;5.90;;
1294;SDS011;640;48.310;11.728;2023-02-28T01:30:48;6.53;;;5.13;;
1294;SDS011;640;48.310;11.728;2023-02-28T01:33:17;8.73;;;5.45;;
1294;SDS011;640;48.310;11.728;2023-02-28T01:35:45;5.38;;;4.80;;
1294;SDS011;640;48.310;11.728;2023-02-28T01:38:13;5.15;;;4.57;;
1294;SDS011;640;48.310;11.728;2023-02-28T01:40:49;8.02;;;6.28;;
1294;SDS011;640;48.310;11.728;2023-02-28T01:43:20;6.50;;;5.35;;
1294;SDS011;640;48.310;11.728;2023-02-28T01:45:51;7.03;;;5.60;;
1294;SDS011;640;48.310;11.728;2023-02-28T01:48:21;8.48;;;6.13;;
1294;SDS011;640;48.310;11.728;2023-02-28T01:50:52;6.57;;;5.38;;
1294;SDS011;640;48.310;11.728;2023-02-28T01:53:24;6.75;;;5.70;;
1294;SDS011;640;48.310;11.728;2023-02-28T01:55:54;7.13;;;5.50;;
1294;SDS011;640;48.310;11.728;2023-02-28T01:58:23;7.65;;;5.57;;
1294;SDS011;640;48.310;11.728;2023-02-28T02:00:53;7.68;;;5.15;;
1294;SDS011;640;48.310;11.728;2023-02-28T02:03:21;7.50;;;5.30;;
1294;SDS011;640;48.310;11.728;2023-02-28T02:05:49;7.65;;;5.70;;
1294;SDS011;640;48.310;11.728;2023-02-28T02:08:19;8.43;;;5.72;;
1294;SDS011;640;48.310;11.728;2023-02-28T02:10:48;7.40;;;5.22;;
1294;SDS011;640;48.310;11.728;2023-02-28T02:13:25;7.43;;;5.93;;
1294;SDS011;640;48.310;11.728;2023-02-28T02:16:07;7.72;;;5.22;;
1294;SDS011;640;48.310;11.728;2023-02-28T02:18:43;5.72;;;4.80;;
1294;SDS011;640;48.310;11.728;2023-02-28T02:21:27;9.30;;;6.07;;
1294;SDS011;640;48.310;11.728;2023-02-28T02:24:26;7.40;;;6.22;;
1294;SDS011;640;48.310;11.728;2023-02-28T02:27:25;8.10;;;5.22;;
1294;SDS011;640;48.310;11.728;2023-02-28T02:30:08;8.38;;;6.50;;
1294;SDS011;640;48.310;11.728;2023-02-28T02:33:11;9.10;;;6.57;;
1294;SDS011;640;48.310;11.728;2023-02-28T02:35:59;7.00;;;6.18;;
1294;SDS011;640;48.310;11.728;2023-02-28T02:38:31;8.70;;;6.20;;
1294;SDS011;640;48.310;11.728;2023-02-28T02:41:04;7.40;;;6.00;;
1294;SDS011;640;48.310;11.728;2023-02-28T02:43:38;9.52;;;6.82;;
1294;SDS011;640;48.310;11.728;2023-02-28T02:46:10;12.38;;;6.90;;
1294;SDS011;640;48.310;11.728;2023-02-28T02:48:42;8.90;;;6.32;;
1294;SDS011;640;48.310;11.728;2023-02-28T02:51:14;9.48;;;7.00;;
1294;SDS011;640;48.310;11.728;2023-02-28T02:53:44;10.32;;;6.90;;
1294;SDS011;640;48.310;11.728;2023-02-28T02:56:17;9.05;;;6.93;;
1294;SDS011;640;48.310;11.728;2023-02-28T02:58:47;8.57;;;6.57;;
1294;SDS011;640;48.310;11.728;2023-02-28T03:01:19;8.93;;;7.05;;
1294;SDS011;640;48.310;11.728;2023-02-28T03:03:55;8.05;;;6.07;;
1294;SDS011;640;48.310;11.728;2023-02-28T03:06:26;7.00;;;5.70;;
1294;SDS011;640;48.310;11.728;2023-02-28T03:08:55;9.40;;;6.25;;
1294;SDS011;640;48.310;11.728;2023-02-28T03:11:23;8.75;;;6.65;;
1294;SDS011;640;48.310;11.728;2023-02-28T03:13:52;9.75;;;7.15;;
1294;SDS011;640;48.310;11.728;2023-02-28T03:16:29;10.73;;;6.70;;
1294;SDS011;640;48.310;11.728;2023-02-28T03:19:14;8.32;;;6.45;;
1294;SDS011;640;48.310;11.728;2023-02-28T03:21:52;10.32;;;7.60;;
1294;SDS011;640;48.310;11.728;2023-02-28T03:24:27;9.40;;;6.65;;
1294;SDS011;640;48.310;11.728;2023-02-28T03:27:03;9.00;;;6.45;;
1294;SDS011;640;48.310;11.728;2023-02-28T03:29:33;11.15;;;7.15;;
1294;SDS011;640;48.310;11.728;2023-02-28T03:32:04;7.05;;;5.53;;
1294;SDS011;640;48.310;11.728;2023-02-28T03:34:38;11.05;;;7.78;;
1294;SDS011;640;48.310;11.728;2023-02-28T03:37:11;10.05;;;6.85;;
1294;SDS011;640;48.310;11.728;2023-02-28T03:39:42;9.45;;;7.40;;
1294;SDS011;640;48.310;11.728;2023-02-28T03:42:12;11.70;;;9.15;;
1294;SDS011;640;48.310;11.728;2023-02-28T03:44:42;7.93;;;5.93;;
1294;SDS011;640;48.310;11.728;2023-02-28T03:47:13;12.90;;;8.98;;
1294;SDS011;640;48.310;11.728;2023-02-28T03:49:45;11.00;;;7.55;;
1294;SDS011;640;48.310;11.728;2023-02-28T03:52:17;10.02;;;7.32;;
1294;SDS011;640;48.310;11.728;2023-02-28T03:54:47;7.72;;;6.32;;
1294;SDS011;640;48.310;11.728;2023-02-28T03:57:20;8.60;;;7.53;;
1294;SDS011;640;48.310;11.728;2023-02-28T03:59:54;9.88;;;7.32;;
1294;SDS011;640;48.310;11.728;2023-02-28T04:02:24;9.82;;;7.20;;
1294;SDS011;640;48.310;11.728;2023-02-28T04:04:53;10.07;;;7.65;;
1294;SDS011;640;48.310;11.728;2023-02-28T04:07:23;10.48;;;8.10;;
1294;SDS011;640;48.310;11.728;2023-02-28T04:09:51;8.27;;;6.57;;
1294;SDS011;640;48.310;11.728;2023-02-28T04:12:19;11.10;;;7.35;;
1294;SDS011;640;48.310;11.728;2023-02-28T04:14:49;9.32;;;7.05;;
1294;SDS011;640;48.310;11.728;2023-02-28T04:17:18;10.93;;;7.28;;
1294;SDS011;640;48.310;11.728;2023-02-28T04:19:46;10.07;;;7.53;;
1294;SDS011;640;48.310;11.728;2023-02-28T04:22:14;13.23;;;9.75;;
1294;SDS011;640;48.310;11.728;2023-02-28T04:24:45;13.60;;;8.80;;
1294;SDS011;640;48.310;11.728;2023-02-28T04:27:13;8.75;;;6.57;;
1294;SDS011;640;48.310;11.728;2023-02-28T04:29:42;14.00;;;10.35;;
1294;SDS011;640;48.310;11.728;2023-02-28T04:32:11;11.50;;;7.45;;
1294;SDS011;640;48.310;11.728;2023-02-28T04:34:40;12.60;;;8.30;;
1294;SDS011;640;48.310;11.728;2023-02-28T04:37:08;10.88;;;7.40;;
1294;SDS011;640;48.310;11.728;2023-02-28T04:39:40;10.05;;;8.38;;
1294;SDS011;640;48.310;11.728;2023-02-28T04:42:10;11.93;;;7.95;;
1294;SDS011;640;48.310;11.728;2023-02-28T04:44:39;11.75;;;9.13;;
1294;SDS011;640;48.310;11.728;2023-02-28T04:47:07;11.65;;;7.90;;
1294;SDS011;640;48.310;11.728;2023-02-28T04:49:35;12.48;;;8.65;;
1294;SDS011;640;48.310;11.728;2023-02-28T04:52:04;12.25;;;8.27;;
1294;SDS011;640;48.310;11.728;2023-02-28T04:54:34;10.57;;;8.52;;
1294;SDS011;640;48.310;11.728;2023-02-28T04:57:02;12.43;;;8.95;;
1294;SDS011;640;48.310;11.728;2023-02-28T04:59:32;11.50;;;7.60;;
1294;SDS011;640;48.310;11.728;2023-02-28T05:02:01;10.30;;;7.88;;
1294;SDS011;640;48.310;11.728;2023-02-28T05:04:33;9.68;;;8.65;;
1294;SDS011;640;48.310;11.728;2023-02-28T05:07:02;11.73;;;8.30;;
1294;SDS011;640;48.310;11.728;2023-02-28T05:09:30;11.27;;;8.63;;
1294;SDS011;640;48.310;11.728;2023-02-28T05:11:59;13.50;;;9.65;;
1294;SDS011;640;48.310;11.728;2023-02-28T05:14:28;11.93;;;8.20;;
1294;SDS011;640;48.310;11.728;2023-02-28T05:16:57;13.43;;;10.50;;
1294;SDS011;640;48.310;11.728;2023-02-28T05:19:26;13.90;;;10.33;;
1294;SDS011;640;48.310;11.728;2023-02-28T05:21:54;12.65;;;8.82;;
1294;SDS011;640;48.310;11.728;2023-02-28T05:24:23;12.48;;;8.98;;
1294;SDS011;640;48.310;11.728;2023-02-28T05:26:52;15.13;;;9.98;;
1294;SDS011;640;48.310;11.728;2023-02-28T05:29:20;14.52;;;8.95;;
1294;SDS011;640;48.310;11.728;2023-02-28T05:31:49;10.75;;;8.60;;
1294;SDS011;640;48.310;11.728;2023-02-28T05:34:19;13.45;;;9.30;;
1294;SDS011;640;48.310;11.728;2023-02-28T05:36:47;15.83;;;9.93;;
1294;SDS011;640;48.310;11.728;2023-02-28T05:39:16;12.02;;;9.70;;
1294;SDS011;640;48.310;11.728;2023-02-28T05:41:44;11.35;;;9.73;;
1294;SDS011;640;48.310;11.728;2023-02-28T05:44:12;12.57;;;9.30;;
1294;SDS011;640;48.310;11.728;2023-02-28T05:46:40;11.40;;;8.98;;
1294;SDS011;640;48.310;11.728;2023-02-28T05:49:09;11.05;;;6.78;;
1294;SDS011;640;48.310;11.728;2023-02-28T05:51:38;12.30;;;8.60;;
1294;SDS011;640;48.310;11.728;2023-02-28T05:54:07;17.50;;;10.20;;
1294;SDS011;640;48.310;11.728;2023-02-28T05:56:38;12.27;;;8.98;;
1294;SDS011;640;48.310;11.728;2023-02-28T05:59:07;13.77;;;9.52;;
1294;SDS011;640;48.310;11.728;2023-02-28T06:01:36;13.15;;;9.25;;
1294;SDS011;640;48.310;11.728;2023-02-28T06:04:06;13.57;;;9.88;;
1294;SDS011;640;48.310;11.728;2023-02-28T06:06:52;11.88;;;9.18;;
1294;SDS011;640;48.310;11.728;2023-02-28T06:09:21;14.55;;;10.10;;
1294;SDS011;640;48.310;11.728;2023-02-28T06:11:49;13.25;;;9.35;;
1294;SDS011;640;48.310;11.728;2023-02-28T06:14:18;13.25;;;9.18;;
1294;SDS011;640;48.310;11.728;2023-02-28T06:16:47;13.02;;;9.85;;
1294;SDS011;640;48.310;11.728;2023-02-28T06:19:16;14.75;;;10.38;;
1294;SDS011;640;48.310;11.728;2023-02-28T06:21:44;14.07;;;10.13;;
1294;SDS011;640;48.310;11.728;2023-02-28T06:24:14;11.95;;;9.68;;
1294;SDS011;640;48.310;11.728;2023-02-28T06:26:42;15.73;;;10.60;;
1294;SDS011;640;48.310;11.728;2023-02-28T06:29:10;14.77;;;9.45;;
1294;SDS011;640;48.310;11.728;2023-02-28T06:31:39;12.07;;;8.20;;
1294;SDS011;640;48.310;11.728;2023-02-28T06:34:07;15.90;;;10.93;;
1294;SDS011;640;48.310;11.728;2023-02-28T06:36:35;18.75;;;10.75;;
1294;SDS011;640;48.310;11.728;2023-02-28T06:39:04;15.20;;;8.93;;
1294;SDS011;640;48.310;11.728;2023-02-28T06:41:33;11.27;;;8.43;;
1294;SDS011;640;48.310;11.728;2023-02-28T06:44:20;14.35;;;9.10;;
1294;SDS011;640;48.310;11.728;2023-02-28T06:46:49;14.63;;;8.75;;
1294;SDS011;640;48.310;11.728;2023-02-28T06:49:17;14.07;;;10.00;;
1294;SDS011;640;48.310;11.728;2023-02-28T06:51:45;17.48;;;10.70;;
1294;SDS011;640;48.310;11.728;2023-02-28T06:54:14;17.30;;;12.48;;
1294;SDS011;640;48.310;11.728;2023-02-28T06:56:43;13.73;;;9.68;;
1294;SDS011;640;48.310;11.728;2023-02-28T06:59:12;14.43;;;9.83;;
1294;SDS011;640;48.310;11.728;2023-02-28T07:01:40;14.98;;;10.25;;
1294;SDS011;640;48.310;11.728;2023-02-28T07:04:08;12.93;;;9.15;;
1294;SDS011;640;48.310;11.728;2023-02-28T07:06:37;15.90;;;10.38;;
1294;SDS011;640;48.310;11.728;2023-02-28T07:09:05;15.05;;;10.32;;
1294;SDS011;640;48.310;11.728;2023-02-28T07:11:34;14.38;;;9.23;;
1294;SDS011;640;48.310;11.728;2023-02-28T07:14:03;12.10;;;7.30;;
1294;SDS011;640;48.310;11.728;2023-02-28T07:16:31;13.57;;;9.30;;
1294;SDS011;640;48.310;11.728;2023-02-28T07:19:00;13.65;;;9.98;;
1294;SDS011;640;48.310;11.728;2023-02-28T07:21:28;15.35;;;9.57;;
1294;SDS011;640;48.310;11.728;2023-02-28T07:23:57;15.55;;;10.75;;
1294;SDS011;640;48.310;11.728;2023-02-28T07:26:25;14.98;;;9.38;;
1294;SDS011;640;48.310;11.728;2023-02-28T07:28:53;13.50;;;8.60;;
1294;SDS011;640;48.310;11.728;2023-02-28T07:31:23;15.50;;;10.80;;
1294;SDS011;640;48.310;11.728;2023-02-28T07:33:51;17.17;;;10.18;;
1294;SDS011;640;48.310;11.728;2023-02-28T07:36:20;17.33;;;10.98;;
1294;SDS011;640;48.310;11.728;2023-02-28T07:38:48;13.40;;;9.48;;
1294;SDS011;640;48.310;11.728;2023-02-28T07:41:18;14.75;;;9.50;;
1294;SDS011;640;48.310;11.728;2023-02-28T07:43:48;17.83;;;10.52;;
1294;SDS011;640;48.310;11.728;2023-02-28T07:46:16;15.00;;;9.48;;
1294;SDS011;640;48.310;11.728;2023-02-28T07:51:16;17.00;;;10.57;;
1294;SDS011;640;48.310;11.728;2023-02-28T07:53:45;18.02;;;12.90;;
1294;SDS011;640;48.310;11.728;2023-02-28T07:56:13;17.58;;;10.65;;
1294;SDS011;640;48.310;11.728;2023-02-28T07:58:41;13.25;;;9.52;;
1294;SDS011;640;48.310;11.728;2023-02-28T08:01:10;17.67;;;12.20;;
1294;SDS011;640;48.310;11.728;2023-02-28T08:03:39;15.57;;;10.13;;
1294;SDS011;640;48.310;11.728;2023-02-28T08:06:14;19.45;;;11.30;;
1294;SDS011;640;48.310;11.728;2023-02-28T08:08:44;14.00;;;10.70;;
1294;SDS011;640;48.310;11.728;2023-02-28T08:11:12;16.25;;;10.15;;
1294;SDS011;640;48.310;11.728;2023-02-28T08:13:40;16.67;;;11.10;;
1294;SDS011;640;48.310;11.728;2023-02-28T08:16:10;13.88;;;9.60;;
1294;SDS011;640;48.310;11.728;2023-02-28T08:18:42;16.23;;;10.32;;
1294;SDS011;640;48.310;11.728;2023-02-28T08:21:12;15.75;;;9.90;;
1294;SDS011;640;48.310;11.728;2023-02-28T08:23:40;13.13;;;9.40;;
1294;SDS011;640;48.310;11.728;2023-02-28T08:26:08;14.43;;;10.48;;
1294;SDS011;640;48.310;11.728;2023-02-28T08:28:36;17.02;;;11.73;;
1294;SDS011;640;48.310;11.728;2023-02-28T08:31:08;13.20;;;10.38;;
1294;SDS011;640;48.310;11.728;2023-02-28T08:33:37;18.08;;;12.38;;
1294;SDS011;640;48.310;11.728;2023-02-28T08:36:07;17.02;;;11.95;;
1294;SDS011;640;48.310;11.728;2023-02-28T08:38:37;15.00;;;9.67;;
1294;SDS011;640;48.310;11.728;2023-02-28T08:41:07;15.75;;;9.80;;
1294;SDS011;640;48.310;11.728;2023-02-28T08:46:05;15.38;;;12.63;;
1294;SDS011;640;48.310;11.728;2023-02-28T08:48:34;16.83;;;11.30;;
1294;SDS011;640;48.310;11.728;2023-02-28T08:51:05;17.55;;;10.20;;
1294;SDS011;640;48.310;11.728;2023-02-28T08:53:35;16.30;;;11.75;;
1294;SDS011;640;48.310;11.728;2023-02-28T08:56:06;16.83;;;11.82;;
1294;SDS011;640;48.310;11.728;2023-02-28T08:58:36;18.00;;;12.77;;
1294;SDS011;640;48.310;11.728;2023-02-28T09:01:07;15.38;;;10.05;;
1294;SDS011;640;48.310;11.728;2023-02-28T09:03:37;19.60;;;12.82;;
1294;SDS011;640;48.310;11.728;2023-02-28T09:06:05;13.75;;;9.48;;
1294;SDS011;640;48.310;11.728;2023-02-28T09:08:34;11.98;;;8.40;;
1294;SDS011;640;48.310;11.728;2023-02-28T09:11:04;13.88;;;8.55;;
1294;SDS011;640;48.310;11.728;2023-02-28T09:13:33;15.45;;;9.77;;
1294;SDS011;640;48.310;11.728;2023-02-28T09:16:01;18.67;;;12.23;;
1294;SDS011;640;48.310;11.728;2023-02-28T09:18:31;18.80;;;11.98;;
1294;SDS011;640;48.310;11.728;2023-02-28T09:20:59;16.92;;;11.75;;
1294;SDS011;640;48.310;11.728;2023-02-28T09:23:31;15.88;;;10.45;;
1294;SDS011;640;48.310;11.728;2023-02-28T09:25:59;14.18;;;9.63;;
1294;SDS011;640;48.310;11.728;2023-02-28T09:28:29;17.52;;;10.82;;
1294;SDS011;640;48.310;11.728;2023-02-28T09:30:58;16.93;;;10.77;;
1294;SDS011;640;48.310;11.728;2023-02-28T09:33:26;17.65;;;10.02;;
1294;SDS011;640;48.310;11.728;2023-02-28T09:35:57;16.67;;;11.43;;
1294;SDS011;640;48.310;11.728;2023-02-28T09:38:27;16.23;;;9.98;;
1294;SDS011;640;48.310;11.728;2023-02-28T09:40:56;16.15;;;10.52;;
1294;SDS011;640;48.310;11.728;2023-02-28T09:43:28;15.50;;;10.32;;
1294;SDS011;640;48.310;11.728;2023-02-28T09:46:00;15.93;;;9.63;;
1294;SDS011;640;48.310;11.728;2023-02-28T09:48:33;17.55;;;10.88;;
1294;SDS011;640;48.310;11.728;2023-02-28T09:51:09;14.30;;;10.00;;
1294;SDS011;640;48.310;11.728;2023-02-28T09:53:42;14.70;;;8.75;;
1294;SDS011;640;48.310;11.728;2023-02-28T09:56:18;13.82;;;9.90;;
1294;SDS011;640;48.310;11.728;2023-02-28T09:58:54;15.40;;;10.90;;
1294;SDS011;640;48.310;11.728;2023-02-28T10:01:27;14.93;;;9.75;;
1294;SDS011;640;48.310;11.728;2023-02-28T10:04:00;14.07;;;10.15;;
1294;SDS011;640;48.310;11.728;2023-02-28T10:06:33;18.38;;;10.50;;
1294;SDS011;640;48.310;11.728;2023-02-28T10:09:07;13.82;;;9.27;;
1294;SDS011;640;48.310;11.728;2023-02-28T10:11:40;14.70;;;10.32;;
1294;SDS011;640;48.310;11.728;2023-02-28T10:14:12;18.83;;;9.88;;
1294;SDS011;640;48.310;11.728;2023-02-28T10:16:43;16.88;;;10.57;;
1294;SDS011;640;48.310;11.728;2023-02-28T10:19:20;16.63;;;13.75;;
1294;SDS011;640;48.310;11.728;2023-02-28T10:21:52;14.80;;;10.20;;
1294;SDS011;640;48.310;11.728;2023-02-28T10:24:28;15.80;;;11.18;;
1294;SDS011;640;48.310;11.728;2023-02-28T10:26:59;16.00;;;11.40;;
1294;SDS011;640;48.310;11.728;2023-02-28T10:29:31;17.65;;;11.30;;
1294;SDS011;640;48.310;11.728;2023-02-28T10:32:01;16.88;;;9.95;;
1294;SDS011;640;48.310;11.728;2023-02-28T10:34:30;17.20;;;12.18;;
1294;SDS011;640;48.310;11.728;2023-02-28T10:36:58;17.60;;;9.95;;
1294;SDS011;640;48.310;11.728;2023-02-28T10:39:35;16.08;;;9.77;;
1294;SDS011;640;48.310;11.728;2023-02-28T10:42:04;17.50;;;13.95;;
1294;SDS011;640;48.310;11.728;2023-02-28T10:44:34;14.52;;;9.85;;
1294;SDS011;640;48.310;11.728;2023-02-28T10:47:03;15.43;;;9.87;;
1294;SDS011;640;48.310;11.728;2023-02-28T10:49:31;15.68;;;9.45;;
1294;SDS011;640;48.310;11.728;2023-02-28T10:52:00;13.07;;;9.50;;
1294;SDS011;640;48.310;11.728;2023-02-28T10:54:29;15.23;;;11.52;;
1294;SDS011;640;48.310;11.728;2023-02-28T10:57:07;14.75;;;11.43;;
1294;SDS011;640;48.310;11.728;2023-02-28T10:59:41;12.65;;;8.10;;
1294;SDS011;640;48.310;11.728;2023-02-28T11:07:51;14.95;;;9.98;;
1294;SDS011;640;48.310;11.728;2023-02-28T11:10:20;15.07;;;9.90;;
1294;SDS011;640;48.310;11.728;2023-02-28T11:12:53;13.27;;;8.27;;
1294;SDS011;640;48.310;11.728;2023-02-28T11:15:26;18.85;;;11.30;;
1294;SDS011;640;48.310;11.728;2023-02-28T11:17:56;17.02;;;9.30;;
1294;SDS011;640;48.310;11.728;2023-02-28T11:20:26;15.77;;;9.30;;
1294;SDS011;640;48.310;11.728;2023-02-28T11:22:57;12.23;;;9.60;;
1294;SDS011;640;48.310;11.728;2023-02-28T11:25:28;15.27;;;8.52;;
1294;SDS011;640;48.310;11.728;2023-02-28T11:27:59;16.95;;;11.73;;
1294;SDS011;640;48.310;11.728;2023-02-28T11:30:31;14.27;;;9.43;;
1294;SDS011;640;48.310;11.728;2023-02-28T11:33:14;14.60;;;11.15;;
1294;SDS011;640;48.310;11.728;2023-02-28T11:35:56;14.70;;;11.10;;
1294;SDS011;640;48.310;11.728;2023-02-28T11:38:27;16.13;;;11.02;;
1294;SDS011;640;48.310;11.728;2023-02-28T11:41:03;14.05;;;9.18;;
1294;SDS011;640;48.310;11.728;2023-02-28T11:43:39;13.85;;;9.85;;
1294;SDS011;640;48.310;11.728;2023-02-28T11:46:18;12.68;;;8.23;;
1294;SDS011;640;48.310;11.728;2023-02-28T11:48:52;15.27;;;9.88;;
1294;SDS011;640;48.310;11.728;2023-02-28T11:51:27;16.35;;;11.80;;
1294;SDS011;640;48.310;11.728;2023-02-28T11:56:53;15.35;;;7.72;;
1294;SDS011;640;48.310;11.728;2023-02-28T11:59:32;13.38;;;10.15;;
1294;SDS011;640;48.310;11.728;2023-02-28T12:05:04;37.45;;;16.85;;
1294;SDS011;640;48.310;11.728;2023-02-28T12:07:46;16.20;;;10.77;;
1294;SDS011;640;48.310;11.728;2023-02-28T12:10:20;16.77;;;12.48;;
1294;SDS011;640;48.310;11.728;2023-02-28T12:12:54;15.70;;;10.48;;
1294;SDS011;640;48.310;11.728;2023-02-28T12:19:00;16.10;;;10.27;;
1294;SDS011;640;48.310;11.728;2023-02-28T12:21:36;14.63;;;10.27;;
1294;SDS011;640;48.310;11.728;2023-02-28T12:24:22;14.40;;;9.60;;
1294;SDS011;640;48.310;11.728;2023-02-28T12:27:11;13.95;;;9.40;;
1294;SDS011;640;48.310;11.728;2023-02-28T12:29:43;15.05;;;9.80;;
1294;SDS011;640;48.310;11.728;2023-02-28T12:32:16;11.88;;;7.85;;
1294;SDS011;640;48.310;11.728;2023-02-28T12:34:50;15.75;;;8.82;;
1294;SDS011;640;48.310;11.728;2023-02-28T12:37:22;12.93;;;8.48;;
1294;SDS011;640;48.310;11.728;2023-02-28T12:39:54;13.07;;;9.35;;
1294;SDS011;640;48.310;11.728;2023-02-28T12:42:27;13.15;;;8.20;;
1294;SDS011;640;48.310;11.728;2023-02-28T12:47:26;14.30;;;9.15;;
1294;SDS011;640;48.310;11.728;2023-02-28T12:49:58;13.85;;;8.38;;
1294;SDS011;640;48.310;11.728;2023-02-28T12:52:29;18.02;;;9.63;;
1294;SDS011;640;48.310;11.728;2023-02-28T12:55:03;14.43;;;9.55;;
1294;SDS011;640;48.310;11.728;2023-02-28T12:57:33;11.27;;;7.97;;
1294;SDS011;640;48.310;11.728;2023-02-28T13:00:04;14.25;;;9.02;;
1294;SDS011;640;48.310;11.728;2023-02-28T13:02:47;16.30;;;9.05;;
1294;SDS011;640;48.310;11.728;2023-02-28T13:05:28;14.20;;;9.70;;
1294;SDS011;640;48.310;11.728;2023-02-28T13:08:16;14.40;;;8.82;;
1294;SDS011;640;48.310;11.728;2023-02-28T13:10:52;15.95;;;8.30;;
1294;SDS011;640;48.310;11.728;2023-02-28T13:13:22;16.58;;;9.10;;
1294;SDS011;640;48.310;11.728;2023-02-28T13:16:03;13.15;;;8.48;;
1294;SDS011;640;48.310;11.728;2023-02-28T13:18:33;14.77;;;9.43;;
1294;SDS011;640;48.310;11.728;2023-02-28T13:21:06;13.02;;;8.95;;
1294;SDS011;640;48.310;11.728;2023-02-28T13:23:39;14.00;;;10.80;;
1294;SDS011;640;48.310;11.728;2023-02-28T13:29:30;14.73;;;9.38;;
1294;SDS011;640;48.310;11.728;2023-02-28T13:44:10;14.90;;;9.25;;
1294;SDS011;640;48.310;11.728;2023-02-28T13:49:28;13.88;;;9.48;;
1294;SDS011;640;48.310;11.728;2023-02-28T13:52:02;12.98;;;9.75;;
1294;SDS011;640;48.310;11.728;2023-02-28T13:54:44;13.10;;;8.55;;
1294;SDS011;640;48.310;11.728;2023-02-28T13:57:22;14.27;;;10.00;;
1294;SDS011;640;48.310;11.728;2023-02-28T14:00:02;14.77;;;10.32;;
1294;SDS011;640;48.310;11.728;2023-02-28T14:02:47;15.75;;;10.68;;
1294;SDS011;640;48.310;11.728;2023-02-28T14:05:29;15.90;;;9.80;;
1294;SDS011;640;48.310;11.728;2023-02-28T14:07:59;15.52;;;10.88;;
1294;SDS011;640;48.310;11.728;2023-02-28T14:10:34;12.20;;;9.30;;
1294;SDS011;640;48.310;11.728;2023-02-28T14:13:12;13.38;;;8.27;;
1294;SDS011;640;48.310;11.728;2023-02-28T14:15:46;14.48;;;9.07;;
1294;SDS011;640;48.310;11.728;2023-02-28T14:18:17;14.10;;;9.25;;
1294;SDS011;640;48.310;11.728;2023-02-28T14:20:54;13.45;;;9.85;;
1294;SDS011;640;48.310;11.728;2023-02-28T14:26:49;13.70;;;9.82;;
1294;SDS011;640;48.310;11.728;2023-02-28T14:32:27;13.35;;;9.30;;
1294;SDS011;640;48.310;11.728;2023-02-28T14:35:02;14.13;;;9.57;;
1294;SDS011;640;48.310;11.728;2023-02-28T14:37:38;14.32;;;9.88;;
1294;SDS011;640;48.310;11.728;2023-02-28T14:40:11;15.90;;;10.65;;
1294;SDS011;640;48.310;11.728;2023-02-28T14:42:45;15.52;;;9.98;;
1294;SDS011;640;48.310;11.728;2023-02-28T14:45:18;14.75;;;9.55;;
1294;SDS011;640;48.310;11.728;2023-02-28T14:47:47;13.98;;;9.32;;
1294;SDS011;640;48.310;11.728;2023-02-28T14:50:17;15.20;;;11.27;;
1294;SDS011;640;48.310;11.728;2023-02-28T14:52:46;12.90;;;9.05;;
1294;SDS011;640;48.310;11.728;2023-02-28T14:55:17;15.20;;;10.50;;
1294;SDS011;640;48.310;11.728;2023-02-28T14:57:54;14.80;;;11.02;;
1294;SDS011;640;48.310;11.728;2023-02-28T15:00:24;14.88;;;9.77;;
1294;SDS011;640;48.310;11.728;2023-02-28T15:02:54;13.63;;;10.48;;
1294;SDS011;640;48.310;11.728;2023-02-28T15:05:24;13.25;;;9.30;;
1294;SDS011;640;48.310;11.728;2023-02-28T15:08:05;13.35;;;9.65;;
1294;SDS011;640;48.310;11.728;2023-02-28T15:10:39;13.93;;;9.93;;
1294;SDS011;640;48.310;11.728;2023-02-28T15:13:11;14.35;;;10.45;;
1294;SDS011;640;48.310;11.728;2023-02-28T15:15:42;15.27;;;10.73;;
1294;SDS011;640;48.310;11.728;2023-02-28T15:18:29;13.35;;;9.63;;
1294;SDS011;640;48.310;11.728;2023-02-28T15:21:01;13.88;;;8.80;;
1294;SDS011;640;48.310;11.728;2023-02-28T15:23:31;18.20;;;9.85;;
1294;SDS011;640;48.310;11.728;2023-02-28T15:25:59;14.02;;;9.02;;
1294;SDS011;640;48.310;11.728;2023-02-28T15:28:29;16.23;;;10.00;;
1294;SDS011;640;48.310;11.728;2023-02-28T15:30:59;15.13;;;9.52;;
1294;SDS011;640;48.310;11.728;2023-02-28T15:33:28;15.85;;;12.35;;
1294;SDS011;640;48.310;11.728;2023-02-28T15:36:05;14.48;;;10.68;;
1294;SDS011;640;48.310;11.728;2023-02-28T15:38:38;16.40;;;10.38;;
1294;SDS011;640;48.310;11.728;2023-02-28T15:41:20;17.67;;;13.13;;
1294;SDS011;640;48.310;11.728;2023-02-28T15:43:57;15.82;;;11.07;;
1294;SDS011;640;48.310;11.728;2023-02-28T15:46:54;16.88;;;10.90;;
1294;SDS011;640;48.310;11.728;2023-02-28T15:49:25;15.05;;;11.48;;
1294;SDS011;640;48.310;11.728;2023-02-28T15:51:53;15.23;;;9.73;;
1294;SDS011;640;48.310;11.728;2023-02-28T15:54:24;17.58;;;10.90;;
1294;SDS011;640;48.310;11.728;2023-02-28T15:56:56;15.77;;;11.30;;
1294;SDS011;640;48.310;11.728;2023-02-28T15:59:34;18.77;;;12.27;;
1294;SDS011;640;48.310;11.728;2023-02-28T16:02:14;18.05;;;12.98;;
1294;SDS011;640;48.310;11.728;2023-02-28T16:04:55;15.35;;;12.02;;
1294;SDS011;640;48.310;11.728;2023-02-28T16:07:24;17.30;;;12.25;;
1294;SDS011;640;48.310;11.728;2023-02-28T16:09:53;18.48;;;12.93;;
1294;SDS011;640;48.310;11.728;2023-02-28T16:12:23;13.68;;;9.85;;
1294;SDS011;640;48.310;11.728;2023-02-28T16:14:55;17.08;;;11.20;;